sensor_id;sensor_type;location;lat;lon;timestamp;P1;durP1;ratioP1;P2;durP2;ratioP2
68010;SDS011;54794;48.348;7.878;2023-12-14T00:01:33;0.40;;;0.30;;
68010;SDS011;54794;48.348;7.878;2023-12-14T00:04:54;0.55;;;0.40;;
68010;SDS011;54794;48.348;7.878;2023-12-14T00:12:21;1.05;;;0.57;;
68010;SDS011;54794;48.348;7.878;2023-12-14T00:15:50;0.40;;;0.30;;
68010;SDS011;54794;48.348;7.878;2023-12-14T00:19:28;0.77;;;0.25;;
68010;SDS011;54794;48.348;7.878;2023-12-14T00:23:05;0.80;;;0.30;;
68010;SDS011;54794;48.348;7.878;2023-12-14T00:26:13;0.32;;;0.20;;
68010;SDS011;54794;48.348;7.878;2023-12-14T00:29:25;0.40;;;0.40;;
68010;SDS011;54794;48.348;7.878;2023-12-14T00:32:56;0.50;;;0.30;;
68010;SDS011;54794;48.348;7.878;2023-12-14T00:36:11;0.50;;;0.40;;
68010;SDS011;54794;48.348;7.878;2023-12-14T00:42:05;0.30;;;0.17;;
68010;SDS011;54794;48.348;7.878;2023-12-14T00:48:57;1.13;;;0.50;;
68010;SDS011;54794;48.348;7.878;2023-12-14T00:52:05;0.65;;;0.30;;
68010;SDS011;54794;48.348;7.878;2023-12-14T00:55:52;0.10;;;0.10;;
68010;SDS011;54794;48.348;7.878;2023-12-14T00:59:08;2.03;;;0.30;;
68010;SDS011;54794;48.348;7.878;2023-12-14T01:02:13;0.63;;;0.50;;
68010;SDS011;54794;48.348;7.878;2023-12-14T01:05:14;0.60;;;0.30;;
68010;SDS011;54794;48.348;7.878;2023-12-14T01:08:17;0.50;;;0.30;;
68010;SDS011;54794;48.348;7.878;2023-12-14T01:11:27;0.52;;;0.40;;
68010;SDS011;54794;48.348;7.878;2023-12-14T01:15:01;0.50;;;0.30;;
68010;SDS011;54794;48.348;7.878;2023-12-14T01:18:29;0.90;;;0.28;;
68010;SDS011;54794;48.348;7.878;2023-12-14T01:21:27;2.67;;;0.40;;
68010;SDS011;54794;48.348;7.878;2023-12-14T01:24:21;0.47;;;0.28;;
68010;SDS011;54794;48.348;7.878;2023-12-14T01:27:38;0.90;;;0.40;;
68010;SDS011;54794;48.348;7.878;2023-12-14T01:37:00;0.70;;;0.40;;
68010;SDS011;54794;48.348;7.878;2023-12-14T01:43:38;0.63;;;0.40;;
68010;SDS011;54794;48.348;7.878;2023-12-14T01:46:58;0.73;;;0.45;;
68010;SDS011;54794;48.348;7.878;2023-12-14T01:50:05;0.93;;;0.45;;
68010;SDS011;54794;48.348;7.878;2023-12-14T01:53:50;2.35;;;0.40;;
68010;SDS011;54794;48.348;7.878;2023-12-14T01:57:34;0.60;;;0.30;;
68010;SDS011;54794;48.348;7.878;2023-12-14T02:05:43;0.93;;;0.38;;
68010;SDS011;54794;48.348;7.878;2023-12-14T02:21:03;0.63;;;0.40;;
68010;SDS011;54794;48.348;7.878;2023-12-14T02:32:22;0.93;;;0.57;;
68010;SDS011;54794;48.348;7.878;2023-12-14T02:36:19;0.98;;;0.52;;
68010;SDS011;54794;48.348;7.878;2023-12-14T02:40:23;0.95;;;0.60;;
68010;SDS011;54794;48.348;7.878;2023-12-14T02:44:19;1.00;;;0.50;;
68010;SDS011;54794;48.348;7.878;2023-12-14T02:55:52;0.70;;;0.43;;
68010;SDS011;54794;48.348;7.878;2023-12-14T03:03:05;0.80;;;0.57;;
68010;SDS011;54794;48.348;7.878;2023-12-14T03:15:18;0.77;;;0.55;;
68010;SDS011;54794;48.348;7.878;2023-12-14T03:18:33;1.10;;;0.50;;
68010;SDS011;54794;48.348;7.878;2023-12-14T09:12:14;2.25;;;1.35;;
68010;SDS011;54794;48.348;7.878;2023-12-14T09:22:19;4.93;;;2.80;;
68010;SDS011;54794;48.348;7.878;2023-12-14T09:25:29;3.40;;;2.10;;
68010;SDS011;54794;48.348;7.878;2023-12-14T09:28:32;4.37;;;2.23;;
68010;SDS011;54794;48.348;7.878;2023-12-14T09:32:33;3.55;;;2.10;;
68010;SDS011;54794;48.348;7.878;2023-12-14T09:43:54;2.95;;;1.80;;
68010;SDS011;54794;48.348;7.878;2023-12-14T09:47:38;2.03;;;1.27;;
68010;SDS011;54794;48.348;7.878;2023-12-14T09:54:22;2.60;;;1.38;;
68010;SDS011;54794;48.348;7.878;2023-12-14T09:58:18;2.83;;;1.70;;
68010;SDS011;54794;48.348;7.878;2023-12-14T10:01:26;2.03;;;1.13;;
68010;SDS011;54794;48.348;7.878;2023-12-14T10:04:25;2.10;;;1.23;;
68010;SDS011;54794;48.348;7.878;2023-12-14T10:07:22;1.88;;;1.20;;
68010;SDS011;54794;48.348;7.878;2023-12-14T10:21:23;1.35;;;0.90;;
68010;SDS011;54794;48.348;7.878;2023-12-14T10:24:04;1.90;;;1.10;;
68010;SDS011;54794;48.348;7.878;2023-12-14T10:34:37;1.60;;;0.98;;
68010;SDS011;54794;48.348;7.878;2023-12-14T10:37:36;1.85;;;0.90;;
68010;SDS011;54794;48.348;7.878;2023-12-14T10:40:43;1.75;;;1.10;;
68010;SDS011;54794;48.348;7.878;2023-12-14T10:55:48;1.92;;;0.82;;
68010;SDS011;54794;48.348;7.878;2023-12-14T10:59:38;1.75;;;0.98;;
68010;SDS011;54794;48.348;7.878;2023-12-14T11:02:45;0.90;;;0.70;;
68010;SDS011;54794;48.348;7.878;2023-12-14T11:10:00;1.52;;;1.10;;
68010;SDS011;54794;48.348;7.878;2023-12-14T11:16:01;1.40;;;0.90;;
68010;SDS011;54794;48.348;7.878;2023-12-14T11:19:28;2.13;;;0.90;;
68010;SDS011;54794;48.348;7.878;2023-12-14T11:22:40;0.90;;;0.68;;
68010;SDS011;54794;48.348;7.878;2023-12-14T11:25:31;1.20;;;0.80;;
68010;SDS011;54794;48.348;7.878;2023-12-14T11:32:17;1.15;;;0.98;;
68010;SDS011;54794;48.348;7.878;2023-12-14T11:34:55;1.70;;;1.08;;
68010;SDS011;54794;48.348;7.878;2023-12-14T11:37:47;1.80;;;1.10;;
68010;SDS011;54794;48.348;7.878;2023-12-14T11:40:43;1.60;;;1.10;;
68010;SDS011;54794;48.348;7.878;2023-12-14T11:46:31;3.65;;;2.72;;
68010;SDS011;54794;48.348;7.878;2023-12-14T11:49:28;3.20;;;1.90;;
68010;SDS011;54794;48.348;7.878;2023-12-14T11:51:55;3.28;;;1.50;;
68010;SDS011;54794;48.348;7.878;2023-12-14T11:54:26;2.88;;;1.50;;
68010;SDS011;54794;48.348;7.878;2023-12-14T11:57:01;3.00;;;1.30;;
68010;SDS011;54794;48.348;7.878;2023-12-14T11:59:45;2.10;;;1.30;;
68010;SDS011;54794;48.348;7.878;2023-12-14T12:06:24;1.00;;;0.75;;
68010;SDS011;54794;48.348;7.878;2023-12-14T12:09:08;11.80;;;5.75;;
68010;SDS011;54794;48.348;7.878;2023-12-14T12:11:39;13.23;;;6.57;;
68010;SDS011;54794;48.348;7.878;2023-12-14T12:14:41;5.43;;;2.95;;
68010;SDS011;54794;48.348;7.878;2023-12-14T12:17:19;4.47;;;2.53;;
68010;SDS011;54794;48.348;7.878;2023-12-14T12:19:55;2.42;;;1.60;;
68010;SDS011;54794;48.348;7.878;2023-12-14T12:22:46;3.55;;;1.42;;
68010;SDS011;54794;48.348;7.878;2023-12-14T12:25:19;1.80;;;1.30;;
68010;SDS011;54794;48.348;7.878;2023-12-14T12:28:06;2.22;;;1.30;;
68010;SDS011;54794;48.348;7.878;2023-12-14T12:31:10;1.50;;;1.00;;
68010;SDS011;54794;48.348;7.878;2023-12-14T12:34:06;2.28;;;1.60;;
68010;SDS011;54794;48.348;7.878;2023-12-14T12:37:15;1.48;;;1.10;;
68010;SDS011;54794;48.348;7.878;2023-12-14T12:40:25;2.13;;;1.38;;
68010;SDS011;54794;48.348;7.878;2023-12-14T12:43:18;1.58;;;1.20;;
68010;SDS011;54794;48.348;7.878;2023-12-14T12:45:45;1.75;;;1.23;;
68010;SDS011;54794;48.348;7.878;2023-12-14T12:48:29;2.03;;;1.27;;
68010;SDS011;54794;48.348;7.878;2023-12-14T12:51:05;1.67;;;1.15;;
68010;SDS011;54794;48.348;7.878;2023-12-14T12:54:47;2.05;;;0.88;;
68010;SDS011;54794;48.348;7.878;2023-12-14T12:58:08;2.13;;;0.80;;
68010;SDS011;54794;48.348;7.878;2023-12-14T13:01:35;1.02;;;0.88;;
68010;SDS011;54794;48.348;7.878;2023-12-14T13:05:23;2.75;;;1.25;;
68010;SDS011;54794;48.348;7.878;2023-12-14T13:08:29;1.77;;;1.25;;
68010;SDS011;54794;48.348;7.878;2023-12-14T13:11:30;1.80;;;1.30;;
68010;SDS011;54794;48.348;7.878;2023-12-14T13:14:42;1.60;;;1.27;;
68010;SDS011;54794;48.348;7.878;2023-12-14T13:18:16;1.60;;;1.30;;
68010;SDS011;54794;48.348;7.878;2023-12-14T13:21:45;1.70;;;1.00;;
68010;SDS011;54794;48.348;7.878;2023-12-14T13:24:38;1.60;;;1.00;;
68010;SDS011;54794;48.348;7.878;2023-12-14T13:27:15;2.30;;;1.13;;
68010;SDS011;54794;48.348;7.878;2023-12-14T13:34:07;2.58;;;1.50;;
68010;SDS011;54794;48.348;7.878;2023-12-14T13:38:03;0.82;;;0.75;;
68010;SDS011;54794;48.348;7.878;2023-12-14T13:44:24;3.88;;;2.28;;
68010;SDS011;54794;48.348;7.878;2023-12-14T13:54:46;2.05;;;1.10;;
68010;SDS011;54794;48.348;7.878;2023-12-14T14:01:24;3.65;;;1.15;;
68010;SDS011;54794;48.348;7.878;2023-12-14T14:04:24;1.30;;;0.80;;
68010;SDS011;54794;48.348;7.878;2023-12-14T14:08:02;1.60;;;1.00;;
68010;SDS011;54794;48.348;7.878;2023-12-14T14:11:38;1.30;;;0.93;;
68010;SDS011;54794;48.348;7.878;2023-12-14T14:14:30;1.23;;;0.90;;
68010;SDS011;54794;48.348;7.878;2023-12-14T14:17:07;1.40;;;1.10;;
68010;SDS011;54794;48.348;7.878;2023-12-14T14:20:10;1.42;;;1.05;;
68010;SDS011;54794;48.348;7.878;2023-12-14T14:22:46;2.10;;;1.38;;
68010;SDS011;54794;48.348;7.878;2023-12-14T14:25:15;1.67;;;1.40;;
68010;SDS011;54794;48.348;7.878;2023-12-14T14:27:43;1.70;;;1.05;;
68010;SDS011;54794;48.348;7.878;2023-12-14T14:30:13;2.13;;;1.50;;
68010;SDS011;54794;48.348;7.878;2023-12-14T14:32:40;2.85;;;1.50;;
68010;SDS011;54794;48.348;7.878;2023-12-14T14:35:07;2.10;;;1.50;;
68010;SDS011;54794;48.348;7.878;2023-12-14T14:37:34;2.10;;;1.40;;
68010;SDS011;54794;48.348;7.878;2023-12-14T14:40:01;1.77;;;1.40;;
68010;SDS011;54794;48.348;7.878;2023-12-14T14:42:30;2.08;;;1.38;;
68010;SDS011;54794;48.348;7.878;2023-12-14T14:45:02;1.88;;;1.38;;
68010;SDS011;54794;48.348;7.878;2023-12-14T14:47:56;1.52;;;1.10;;
68010;SDS011;54794;48.348;7.878;2023-12-14T14:51:04;1.60;;;1.17;;
68010;SDS011;54794;48.348;7.878;2023-12-14T14:54:10;1.70;;;1.30;;
68010;SDS011;54794;48.348;7.878;2023-12-14T14:57:18;2.15;;;1.10;;
68010;SDS011;54794;48.348;7.878;2023-12-14T15:04:02;1.30;;;0.90;;
68010;SDS011;54794;48.348;7.878;2023-12-14T15:07:24;2.25;;;1.35;;
68010;SDS011;54794;48.348;7.878;2023-12-14T15:10:53;1.98;;;1.55;;
68010;SDS011;54794;48.348;7.878;2023-12-14T15:13:35;2.03;;;1.63;;
68010;SDS011;54794;48.348;7.878;2023-12-14T15:20:10;8.43;;;4.95;;
68010;SDS011;54794;48.348;7.878;2023-12-14T15:27:11;4.28;;;2.75;;
68010;SDS011;54794;48.348;7.878;2023-12-14T15:31:02;4.30;;;2.75;;
68010;SDS011;54794;48.348;7.878;2023-12-14T15:34:51;3.10;;;2.20;;
68010;SDS011;54794;48.348;7.878;2023-12-14T15:38:18;3.75;;;2.33;;
68010;SDS011;54794;48.348;7.878;2023-12-14T15:42:14;5.80;;;3.33;;
68010;SDS011;54794;48.348;7.878;2023-12-14T15:44:48;5.85;;;3.78;;
68010;SDS011;54794;48.348;7.878;2023-12-14T16:04:21;3.92;;;2.55;;
68010;SDS011;54794;48.348;7.878;2023-12-14T16:07:59;3.63;;;2.60;;
68010;SDS011;54794;48.348;7.878;2023-12-14T16:10:55;7.60;;;5.53;;
68010;SDS011;54794;48.348;7.878;2023-12-14T16:14:46;3.92;;;2.90;;
68010;SDS011;54794;48.348;7.878;2023-12-14T16:41:21;3.47;;;1.77;;
68010;SDS011;54794;48.348;7.878;2023-12-14T16:43:51;3.65;;;2.08;;
68010;SDS011;54794;48.348;7.878;2023-12-14T16:46:21;4.28;;;2.47;;
68010;SDS011;54794;48.348;7.878;2023-12-14T16:48:51;3.67;;;2.65;;
68010;SDS011;54794;48.348;7.878;2023-12-14T16:51:25;4.60;;;2.63;;
68010;SDS011;54794;48.348;7.878;2023-12-14T16:54:28;3.55;;;2.58;;
68010;SDS011;54794;48.348;7.878;2023-12-14T16:56:55;4.35;;;2.85;;
68010;SDS011;54794;48.348;7.878;2023-12-14T17:03:19;3.38;;;2.20;;
68010;SDS011;54794;48.348;7.878;2023-12-14T17:06:15;3.60;;;2.50;;
68010;SDS011;54794;48.348;7.878;2023-12-14T17:17:45;4.72;;;3.38;;
68010;SDS011;54794;48.348;7.878;2023-12-14T17:31:44;7.72;;;3.58;;
68010;SDS011;54794;48.348;7.878;2023-12-14T17:38:40;4.60;;;3.00;;
68010;SDS011;54794;48.348;7.878;2023-12-14T17:41:52;5.07;;;3.40;;
68010;SDS011;54794;48.348;7.878;2023-12-14T17:45:03;5.72;;;2.92;;
68010;SDS011;54794;48.348;7.878;2023-12-14T17:47:40;4.38;;;2.97;;
68010;SDS011;54794;48.348;7.878;2023-12-14T17:50:37;2.45;;;1.90;;
68010;SDS011;54794;48.348;7.878;2023-12-14T17:53:42;2.22;;;1.58;;
68010;SDS011;54794;48.348;7.878;2023-12-14T17:56:58;2.47;;;1.60;;
68010;SDS011;54794;48.348;7.878;2023-12-14T18:00:00;1.92;;;1.40;;
68010;SDS011;54794;48.348;7.878;2023-12-14T18:03:16;2.17;;;1.52;;
68010;SDS011;54794;48.348;7.878;2023-12-14T18:13:39;2.15;;;1.20;;
68010;SDS011;54794;48.348;7.878;2023-12-14T18:21:19;1.67;;;1.15;;
68010;SDS011;54794;48.348;7.878;2023-12-14T18:24:06;2.42;;;1.48;;
68010;SDS011;54794;48.348;7.878;2023-12-14T18:26:55;1.90;;;1.45;;
68010;SDS011;54794;48.348;7.878;2023-12-14T18:36:56;1.92;;;1.30;;
68010;SDS011;54794;48.348;7.878;2023-12-14T18:40:16;2.10;;;1.45;;
68010;SDS011;54794;48.348;7.878;2023-12-14T18:43:07;1.92;;;1.40;;
68010;SDS011;54794;48.348;7.878;2023-12-14T18:45:36;2.58;;;1.83;;
68010;SDS011;54794;48.348;7.878;2023-12-14T18:49:14;3.47;;;1.65;;
68010;SDS011;54794;48.348;7.878;2023-12-14T18:58:09;2.53;;;1.52;;
68010;SDS011;54794;48.348;7.878;2023-12-14T19:00:45;3.28;;;2.00;;
68010;SDS011;54794;48.348;7.878;2023-12-14T19:03:32;3.60;;;2.33;;
68010;SDS011;54794;48.348;7.878;2023-12-14T19:06:08;3.97;;;2.22;;
68010;SDS011;54794;48.348;7.878;2023-12-14T19:09:07;3.67;;;2.13;;
68010;SDS011;54794;48.348;7.878;2023-12-14T19:11:36;3.85;;;2.13;;
68010;SDS011;54794;48.348;7.878;2023-12-14T19:14:23;3.05;;;2.28;;
68010;SDS011;54794;48.348;7.878;2023-12-14T19:17:29;2.78;;;1.88;;
68010;SDS011;54794;48.348;7.878;2023-12-14T19:20:35;2.85;;;2.00;;
68010;SDS011;54794;48.348;7.878;2023-12-14T19:23:51;3.30;;;2.28;;
68010;SDS011;54794;48.348;7.878;2023-12-14T19:26:41;4.30;;;2.58;;
68010;SDS011;54794;48.348;7.878;2023-12-14T19:29:19;3.22;;;1.98;;
68010;SDS011;54794;48.348;7.878;2023-12-14T19:31:55;3.60;;;2.38;;
68010;SDS011;54794;48.348;7.878;2023-12-14T19:34:45;5.50;;;2.65;;
68010;SDS011;54794;48.348;7.878;2023-12-14T19:37:22;4.13;;;2.72;;
68010;SDS011;54794;48.348;7.878;2023-12-14T19:40:09;3.78;;;2.20;;
68010;SDS011;54794;48.348;7.878;2023-12-14T19:43:08;3.90;;;2.38;;
68010;SDS011;54794;48.348;7.878;2023-12-14T19:45:50;3.90;;;2.55;;
68010;SDS011;54794;48.348;7.878;2023-12-14T19:48:18;3.17;;;2.10;;
68010;SDS011;54794;48.348;7.878;2023-12-14T19:51:06;4.25;;;2.10;;
68010;SDS011;54794;48.348;7.878;2023-12-14T19:56:25;2.92;;;1.73;;
68010;SDS011;54794;48.348;7.878;2023-12-14T19:59:01;3.10;;;2.00;;
68010;SDS011;54794;48.348;7.878;2023-12-14T20:01:32;2.55;;;1.55;;
68010;SDS011;54794;48.348;7.878;2023-12-14T20:03:59;4.53;;;1.85;;
68010;SDS011;54794;48.348;7.878;2023-12-14T20:06:27;2.15;;;1.40;;
68010;SDS011;54794;48.348;7.878;2023-12-14T20:08:59;3.03;;;1.85;;
68010;SDS011;54794;48.348;7.878;2023-12-14T20:11:31;2.15;;;1.65;;
68010;SDS011;54794;48.348;7.878;2023-12-14T20:13:58;2.78;;;1.67;;
68010;SDS011;54794;48.348;7.878;2023-12-14T20:16:25;2.00;;;1.42;;
68010;SDS011;54794;48.348;7.878;2023-12-14T20:18:52;3.77;;;2.00;;
68010;SDS011;54794;48.348;7.878;2023-12-14T20:21:19;2.53;;;1.63;;
68010;SDS011;54794;48.348;7.878;2023-12-14T20:23:46;2.72;;;1.70;;
68010;SDS011;54794;48.348;7.878;2023-12-14T20:26:20;3.03;;;1.98;;
68010;SDS011;54794;48.348;7.878;2023-12-14T20:28:49;2.72;;;1.67;;
68010;SDS011;54794;48.348;7.878;2023-12-14T20:31:16;2.83;;;1.65;;
68010;SDS011;54794;48.348;7.878;2023-12-14T20:33:43;3.65;;;2.00;;
68010;SDS011;54794;48.348;7.878;2023-12-14T20:36:10;3.13;;;1.60;;
68010;SDS011;54794;48.348;7.878;2023-12-14T20:38:37;2.13;;;1.50;;
68010;SDS011;54794;48.348;7.878;2023-12-14T20:41:04;2.33;;;1.60;;
68010;SDS011;54794;48.348;7.878;2023-12-14T20:43:32;3.25;;;1.70;;
68010;SDS011;54794;48.348;7.878;2023-12-14T20:45:59;2.65;;;1.67;;
68010;SDS011;54794;48.348;7.878;2023-12-14T20:48:26;2.45;;;1.77;;
68010;SDS011;54794;48.348;7.878;2023-12-14T20:50:54;2.33;;;1.48;;
68010;SDS011;54794;48.348;7.878;2023-12-14T20:53:21;1.80;;;1.33;;
68010;SDS011;54794;48.348;7.878;2023-12-14T21:00:45;2.10;;;0.95;;
68010;SDS011;54794;48.348;7.878;2023-12-14T21:03:12;1.55;;;1.13;;
68010;SDS011;54794;48.348;7.878;2023-12-14T21:05:40;2.70;;;1.52;;
68010;SDS011;54794;48.348;7.878;2023-12-14T21:08:14;2.33;;;1.38;;
68010;SDS011;54794;48.348;7.878;2023-12-14T21:10:45;1.92;;;1.30;;
68010;SDS011;54794;48.348;7.878;2023-12-14T21:13:12;1.77;;;1.27;;
68010;SDS011;54794;48.348;7.878;2023-12-14T21:15:46;2.17;;;1.40;;
68010;SDS011;54794;48.348;7.878;2023-12-14T21:18:14;1.58;;;1.25;;
68010;SDS011;54794;48.348;7.878;2023-12-14T21:20:41;1.92;;;1.48;;
68010;SDS011;54794;48.348;7.878;2023-12-14T21:23:08;1.55;;;1.23;;
68010;SDS011;54794;48.348;7.878;2023-12-14T21:25:35;1.58;;;1.40;;
68010;SDS011;54794;48.348;7.878;2023-12-14T21:28:17;2.30;;;1.70;;
68010;SDS011;54794;48.348;7.878;2023-12-14T21:30:44;1.90;;;1.27;;
68010;SDS011;54794;48.348;7.878;2023-12-14T21:33:11;1.55;;;1.15;;
68010;SDS011;54794;48.348;7.878;2023-12-14T21:35:41;1.45;;;1.13;;
68010;SDS011;54794;48.348;7.878;2023-12-14T21:38:09;1.52;;;1.05;;
68010;SDS011;54794;48.348;7.878;2023-12-14T21:40:38;5.32;;;1.30;;
68010;SDS011;54794;48.348;7.878;2023-12-14T21:43:04;1.98;;;1.38;;
68010;SDS011;54794;48.348;7.878;2023-12-14T21:45:31;1.70;;;1.30;;
68010;SDS011;54794;48.348;7.878;2023-12-14T21:47:58;1.85;;;1.35;;
68010;SDS011;54794;48.348;7.878;2023-12-14T21:50:25;2.17;;;1.58;;
68010;SDS011;54794;48.348;7.878;2023-12-14T21:52:55;2.15;;;1.40;;
68010;SDS011;54794;48.348;7.878;2023-12-14T21:55:22;1.95;;;1.33;;
68010;SDS011;54794;48.348;7.878;2023-12-14T21:57:49;1.48;;;1.20;;
68010;SDS011;54794;48.348;7.878;2023-12-14T22:00:16;1.63;;;1.10;;
68010;SDS011;54794;48.348;7.878;2023-12-14T22:02:45;1.25;;;0.95;;
68010;SDS011;54794;48.348;7.878;2023-12-14T22:05:12;1.55;;;1.02;;
68010;SDS011;54794;48.348;7.878;2023-12-14T22:07:39;1.63;;;1.17;;
68010;SDS011;54794;48.348;7.878;2023-12-14T22:10:06;1.48;;;1.20;;
68010;SDS011;54794;48.348;7.878;2023-12-14T22:12:36;1.70;;;1.17;;
68010;SDS011;54794;48.348;7.878;2023-12-14T22:15:03;3.33;;;1.30;;
68010;SDS011;54794;48.348;7.878;2023-12-14T22:17:30;2.33;;;1.30;;
68010;SDS011;54794;48.348;7.878;2023-12-14T22:19:57;2.92;;;1.58;;
68010;SDS011;54794;48.348;7.878;2023-12-14T22:24:52;1.80;;;1.33;;
68010;SDS011;54794;48.348;7.878;2023-12-14T22:27:19;3.00;;;1.80;;
68010;SDS011;54794;48.348;7.878;2023-12-14T22:29:46;3.58;;;1.83;;
68010;SDS011;54794;48.348;7.878;2023-12-14T22:32:12;3.73;;;2.30;;
68010;SDS011;54794;48.348;7.878;2023-12-14T22:34:39;2.95;;;2.08;;
68010;SDS011;54794;48.348;7.878;2023-12-14T22:37:06;4.43;;;2.00;;
68010;SDS011;54794;48.348;7.878;2023-12-14T22:39:33;3.00;;;2.00;;
68010;SDS011;54794;48.348;7.878;2023-12-14T22:42:00;4.27;;;1.60;;
68010;SDS011;54794;48.348;7.878;2023-12-14T22:46:54;1.50;;;1.17;;
68010;SDS011;54794;48.348;7.878;2023-12-14T22:49:21;2.30;;;1.27;;
68010;SDS011;54794;48.348;7.878;2023-12-14T22:51:48;2.10;;;1.33;;
68010;SDS011;54794;48.348;7.878;2023-12-14T22:54:14;2.03;;;1.40;;
68010;SDS011;54794;48.348;7.878;2023-12-14T22:56:41;2.07;;;1.43;;
68010;SDS011;54794;48.348;7.878;2023-12-14T22:59:08;3.65;;;1.65;;
68010;SDS011;54794;48.348;7.878;2023-12-14T23:01:35;2.00;;;1.58;;
68010;SDS011;54794;48.348;7.878;2023-12-14T23:06:30;3.55;;;1.25;;
68010;SDS011;54794;48.348;7.878;2023-12-14T23:08:59;3.22;;;1.63;;
68010;SDS011;54794;48.348;7.878;2023-12-14T23:11:28;2.35;;;1.65;;
68010;SDS011;54794;48.348;7.878;2023-12-14T23:13:55;2.00;;;1.52;;
68010;SDS011;54794;48.348;7.878;2023-12-14T23:16:23;2.78;;;1.60;;
68010;SDS011;54794;48.348;7.878;2023-12-14T23:18:50;2.65;;;1.67;;
68010;SDS011;54794;48.348;7.878;2023-12-14T23:21:17;2.30;;;1.45;;
68010;SDS011;54794;48.348;7.878;2023-12-14T23:23:44;3.53;;;1.73;;
68010;SDS011;54794;48.348;7.878;2023-12-14T23:26:11;2.42;;;1.60;;
68010;SDS011;54794;48.348;7.878;2023-12-14T23:28:38;2.50;;;1.42;;
68010;SDS011;54794;48.348;7.878;2023-12-14T23:31:05;2.50;;;1.77;;
68010;SDS011;54794;48.348;7.878;2023-12-14T23:33:32;2.00;;;1.30;;
68010;SDS011;54794;48.348;7.878;2023-12-14T23:35:59;3.65;;;1.50;;
68010;SDS011;54794;48.348;7.878;2023-12-14T23:38:26;2.25;;;1.30;;
68010;SDS011;54794;48.348;7.878;2023-12-14T23:40:53;1.58;;;1.02;;
68010;SDS011;54794;48.348;7.878;2023-12-14T23:43:20;1.90;;;1.23;;
68010;SDS011;54794;48.348;7.878;2023-12-14T23:45:47;1.65;;;1.35;;
68010;SDS011;54794;48.348;7.878;2023-12-14T23:48:14;1.65;;;1.20;;
68010;SDS011;54794;48.348;7.878;2023-12-14T23:50:41;3.45;;;1.58;;
68010;SDS011;54794;48.348;7.878;2023-12-14T23:53:08;2.15;;;1.30;;
68010;SDS011;54794;48.348;7.878;2023-12-14T23:55:35;2.33;;;1.25;;
68010;SDS011;54794;48.348;7.878;2023-12-14T23:58:04;2.13;;;1.42;;
